Time,TemperatureF,DewpointF,PressureIn,WindDirection,WindDirectionDegrees,WindSpeedMPH,WindSpeedGustMPH,Humidity,HourlyPrecipIn,Conditions,Clouds,dailyrainin,SoftwareType,DateUTC
2013-01-07 00:01:00,64.1,64.0,30.13,NE,39,2.0,5.0,98,0.00,,,0.00,weatherlink.com 1.10,2013-01-07 05:01:00,
2013-01-07 00:15:00,64.3,64.0,30.14,NNW,336,2.0,7.0,98,0.00,,,0.00,weatherlink.com 1.10,2013-01-07 05:15:00,
2013-01-07 00:31:00,64.3,64.0,30.14,NNE,20,0.0,6.0,98,0.00,,,0.00,weatherlink.com 1.10,2013-01-07 05:31:00,
2013-01-07 00:46:00,64.3,64.0,30.13,ENE,77,1.0,3.0,98,0.00,,,0.00,weatherlink.com 1.10,2013-01-07 05:46:00,
2013-01-07 01:01:00,64.2,64.0,30.12,WSW,245,0.0,5.0,98,0.00,,,0.00,weatherlink.com 1.10,2013-01-07 06:01:00,
2013-01-07 01:16:00,64.1,64.0,30.12,NNE,15,0.0,3.0,98,0.00,,,0.00,weatherlink.com 1.10,2013-01-07 06:16:00,
2013-01-07 01:31:00,64.0,64.0,30.12,ENE,63,1.0,4.0,98,0.00,,,0.00,weatherlink.com 1.10,2013-01-07 06:31:00,
2013-01-07 01:46:00,64.0,64.0,30.11,NE,56,1.0,4.0,98,0.00,,,0.00,weatherlink.com 1.10,2013-01-07 06:46:00,
2013-01-07 02:01:00,64.1,64.0,30.11,ENE,71,0.0,3.0,98,0.00,,,0.00,weatherlink.com 1.10,2013-01-07 07:01:00,
2013-01-07 02:16:00,64.1,64.0,30.12,ENE,63,0.0,2.0,98,0.00,,,0.00,weatherlink.com 1.10,2013-01-07 07:16:00,
2013-01-07 02:31:00,64.2,64.0,30.12,North,355,0.0,2.0,98,0.00,,,0.00,weatherlink.com 1.10,2013-01-07 07:31:00,
2013-01-07 02:46:00,64.3,64.0,30.11,ENE,73,0.0,2.0,98,0.00,,,0.00,weatherlink.com 1.10,2013-01-07 07:46:00,
2013-01-07 03:01:00,64.3,64.0,30.11,ENE,70,0.0,3.0,98,0.00,,,0.00,weatherlink.com 1.10,2013-01-07 08:01:00,
2013-01-07 03:16:00,64.3,64.0,30.12,NE,45,2.0,3.0,98,0.00,,,0.00,weatherlink.com 1.10,2013-01-07 08:16:00,
2013-01-07 03:31:00,64.4,64.0,30.12,ENE,70,2.0,4.0,98,0.00,,,0.00,weatherlink.com 1.10,2013-01-07 08:31:00,
2013-01-07 03:46:00,64.4,64.0,30.12,ENE,69,0.0,3.0,98,0.00,,,0.00,weatherlink.com 1.10,2013-01-07 08:46:00,
2013-01-07 04:01:00,64.3,64.0,30.11,ENE,58,0.0,4.0,98,0.00,,,0.00,weatherlink.com 1.10,2013-01-07 09:01:00,
2013-01-07 04:16:00,63.9,63.0,30.12,NNE,32,1.0,3.0,98,0.00,,,0.00,weatherlink.com 1.10,2013-01-07 09:16:00,
2013-01-07 04:31:00,63.6,63.0,30.12,NNW,332,0.0,3.0,98,0.00,,,0.00,weatherlink.com 1.10,2013-01-07 09:31:00,
2013-01-07 04:46:00,63.4,63.0,30.12,NE,49,1.0,2.0,98,0.00,,,0.00,weatherlink.com 1.10,2013-01-07 09:46:00,
2013-01-07 05:01:00,63.1,63.0,30.11,ENE,73,2.0,7.0,98,0.00,,,0.00,weatherlink.com 1.10,2013-01-07 10:01:00,
2013-01-07 05:16:00,62.9,62.0,30.12,NNW,335,1.0,9.0,98,0.00,,,0.00,weatherlink.com 1.10,2013-01-07 10:16:00,
2013-01-07 05:31:00,62.4,62.0,30.13,ENE,65,0.0,7.0,97,0.00,,,0.00,weatherlink.com 1.10,2013-01-07 10:31:00,
2013-01-07 05:46:00,62.1,61.0,30.14,NNE,15,2.0,7.0,97,0.00,,,0.00,weatherlink.com 1.10,2013-01-07 10:46:00,
2013-01-07 06:01:00,61.4,60.0,30.14,ENE,70,0.0,8.0,96,0.00,,,0.00,weatherlink.com 1.10,2013-01-07 11:01:00,
2013-01-07 06:16:00,61.2,60.0,30.14,ENE,63,2.0,9.0,96,0.00,,,0.00,weatherlink.com 1.10,2013-01-07 11:16:00,
2013-01-07 06:31:00,60.8,59.0,30.15,NNW,328,7.0,9.0,95,0.00,,,0.00,weatherlink.com 1.10,2013-01-07 11:31:00,
2013-01-07 06:46:00,60.7,59.0,30.14,ENE,60,2.0,7.0,95,0.00,,,0.00,weatherlink.com 1.10,2013-01-07 11:46:00,
2013-01-07 07:01:00,60.8,59.0,30.15,NE,52,2.0,10.0,95,0.00,,,0.00,weatherlink.com 1.10,2013-01-07 12:01:00,
2013-01-07 07:16:00,60.9,60.0,30.17,ENE,61,1.0,9.0,95,0.00,,,0.00,weatherlink.com 1.10,2013-01-07 12:16:00,
2013-01-07 07:31:00,60.9,59.0,30.17,NE,47,2.0,13.0,94,0.00,,,0.00,weatherlink.com 1.10,2013-01-07 12:31:00,
2013-01-07 07:46:00,60.6,59.0,30.17,SSE,150,4.0,11.0,94,0.00,,,0.00,weatherlink.com 1.10,2013-01-07 12:46:00,
2013-01-07 08:01:00,60.4,58.0,30.17,NE,43,2.0,13.0,93,0.00,,,0.00,weatherlink.com 1.10,2013-01-07 13:01:00,
2013-01-07 08:16:00,60.3,59.0,30.18,NE,46,1.0,8.0,94,0.00,,,0.00,weatherlink.com 1.10,2013-01-07 13:16:00,
2013-01-07 08:31:00,60.1,58.0,30.19,ENE,72,8.0,8.0,94,0.00,,,0.00,weatherlink.com 1.10,2013-01-07 13:31:00,
2013-01-07 08:46:00,59.6,58.0,30.19,East,101,4.0,8.0,93,0.00,,,0.00,weatherlink.com 1.10,2013-01-07 13:46:00,
2013-01-07 09:01:00,59.4,57.0,30.20,ENE,61,1.0,7.0,93,0.00,,,0.00,weatherlink.com 1.10,2013-01-07 14:01:00,
2013-01-07 09:17:00,59.3,58.0,30.20,ENE,77,9.0,11.0,94,0.00,,,0.00,weatherlink.com 1.10,2013-01-07 14:17:00,
2013-01-07 09:32:00,59.5,57.0,30.20,ESE,103,0.0,7.0,92,0.00,,,0.00,weatherlink.com 1.10,2013-01-07 14:32:00,
2013-01-07 10:02:00,60.1,57.0,30.20,ESE,118,7.0,9.0,88,0.00,,,0.00,weatherlink.com 1.10,2013-01-07 15:02:00,
2013-01-07 10:17:00,60.5,57.0,30.20,East,81,2.0,10.0,87,0.00,,,0.00,weatherlink.com 1.10,2013-01-07 15:17:00,
2013-01-07 10:32:00,60.7,57.0,30.21,NNE,30,6.0,11.0,86,0.00,,,0.00,weatherlink.com 1.10,2013-01-07 15:32:00,
2013-01-07 10:48:00,60.4,57.0,30.21,ENE,77,0.0,8.0,87,0.00,,,0.00,weatherlink.com 1.10,2013-01-07 15:48:00,
2013-01-07 11:02:00,60.1,56.0,30.19,ENE,65,4.0,11.0,86,0.00,,,0.00,weatherlink.com 1.10,2013-01-07 16:02:00,
2013-01-07 11:17:00,60.5,56.0,30.19,NE,41,10.0,12.0,85,0.00,,,0.00,weatherlink.com 1.10,2013-01-07 16:17:00,
2013-01-07 11:32:00,60.9,56.0,30.19,North,11,1.0,9.0,85,0.00,,,0.00,weatherlink.com 1.10,2013-01-07 16:32:00,
2013-01-07 11:47:00,61.5,56.0,30.18,NE,51,4.0,8.0,83,0.00,,,0.00,weatherlink.com 1.10,2013-01-07 16:47:00,
2013-01-07 12:17:00,61.4,56.0,30.17,East,98,3.0,9.0,82,0.00,,,0.00,weatherlink.com 1.10,2013-01-07 17:17:00,
2013-01-07 12:32:00,61.2,56.0,30.16,East,80,4.0,9.0,83,0.00,,,0.00,weatherlink.com 1.10,2013-01-07 17:32:00,
2013-01-07 12:47:00,61.1,56.0,30.16,East,79,3.0,9.0,84,0.00,,,0.00,weatherlink.com 1.10,2013-01-07 17:47:00,
2013-01-07 13:02:00,61.4,57.0,30.15,East,84,3.0,10.0,84,0.00,,,0.00,weatherlink.com 1.10,2013-01-07 18:02:00,
2013-01-07 13:18:00,62.1,57.0,30.14,ENE,71,2.0,8.0,83,0.00,,,0.00,weatherlink.com 1.10,2013-01-07 18:18:00,
2013-01-07 13:32:00,62.2,57.0,30.14,ENE,72,3.0,10.0,83,0.00,,,0.00,weatherlink.com 1.10,2013-01-07 18:32:00,
2013-01-07 13:47:00,62.5,57.0,30.14,ENE,68,4.0,9.0,82,0.00,,,0.00,weatherlink.com 1.10,2013-01-07 18:47:00,
2013-01-07 14:02:00,62.9,57.0,30.14,NW,320,2.0,10.0,81,0.00,,,0.00,weatherlink.com 1.10,2013-01-07 19:02:00,
2013-01-07 14:17:00,63.2,57.0,30.13,ENE,63,2.0,7.0,81,0.00,,,0.00,weatherlink.com 1.10,2013-01-07 19:17:00,
2013-01-07 14:32:00,63.7,58.0,30.13,NE,47,3.0,5.0,81,0.00,,,0.00,weatherlink.com 1.10,2013-01-07 19:32:00,
2013-01-07 14:47:00,63.8,58.0,30.13,East,84,1.0,9.0,80,0.00,,,0.00,weatherlink.com 1.10,2013-01-07 19:47:00,
2013-01-07 15:02:00,63.6,58.0,30.13,NE,51,2.0,8.0,83,0.00,,,0.00,weatherlink.com 1.10,2013-01-07 20:02:00,
2013-01-07 15:17:00,62.9,58.0,30.13,ENE,63,3.0,8.0,85,0.00,,,0.00,weatherlink.com 1.10,2013-01-07 20:17:00,
2013-01-07 15:32:00,62.9,59.0,30.13,ENE,65,4.0,6.0,87,0.00,,,0.00,weatherlink.com 1.10,2013-01-07 20:32:00,
2013-01-07 15:47:00,62.2,59.0,30.14,NE,46,5.0,9.0,89,0.00,,,0.00,weatherlink.com 1.10,2013-01-07 20:47:00,
2013-01-07 16:17:00,61.1,59.0,30.14,East,86,2.0,9.0,94,0.00,,,0.00,weatherlink.com 1.10,2013-01-07 21:17:00,
2013-01-07 16:32:00,60.8,59.0,30.14,East,96,2.0,7.0,95,0.00,,,0.00,weatherlink.com 1.10,2013-01-07 21:32:00,
2013-01-07 16:47:00,60.8,59.0,30.15,NE,51,3.0,7.0,95,0.01,,,0.01,weatherlink.com 1.10,2013-01-07 21:47:00,
2013-01-07 17:02:00,60.5,59.0,30.15,NE,47,3.0,7.0,95,0.01,,,0.01,weatherlink.com 1.10,2013-01-07 22:02:00,
2013-01-07 17:17:00,60.4,59.0,30.15,NE,39,5.0,8.0,94,0.01,,,0.01,weatherlink.com 1.10,2013-01-07 22:17:00,
2013-01-07 17:32:00,60.6,59.0,30.16,NNE,23,5.0,9.0,94,0.01,,,0.01,weatherlink.com 1.10,2013-01-07 22:32:00,
2013-01-07 17:47:00,60.7,59.0,30.16,ENE,72,3.0,11.0,93,0.00,,,0.01,weatherlink.com 1.10,2013-01-07 22:47:00,
2013-01-07 18:02:00,60.9,59.0,30.16,East,84,4.0,11.0,93,0.00,,,0.01,weatherlink.com 1.10,2013-01-07 23:02:00,
2013-01-07 18:17:00,61.1,59.0,30.16,NE,46,6.0,10.0,92,0.00,,,0.01,weatherlink.com 1.10,2013-01-07 23:17:00,
2013-01-07 18:32:00,61.4,59.0,30.17,ENE,73,3.0,11.0,92,0.00,,,0.01,weatherlink.com 1.10,2013-01-07 23:32:00,
2013-01-07 18:47:00,61.5,59.0,30.17,East,86,4.0,12.0,92,0.00,,,0.01,weatherlink.com 1.10,2013-01-07 23:47:00,
2013-01-07 19:02:00,61.8,60.0,30.17,ENE,65,4.0,13.0,92,0.00,,,0.01,weatherlink.com 1.10,2013-01-08 00:02:00,
2013-01-07 19:17:00,62.0,60.0,30.17,NE,46,1.0,8.0,92,0.00,,,0.01,weatherlink.com 1.10,2013-01-08 00:17:00,
2013-01-07 19:32:00,62.1,60.0,30.18,East,98,1.0,10.0,92,0.00,,,0.01,weatherlink.com 1.10,2013-01-08 00:32:00,
2013-01-07 19:47:00,62.1,60.0,30.18,NNE,27,4.0,13.0,92,0.00,,,0.01,weatherlink.com 1.10,2013-01-08 00:47:00,
2013-01-07 20:02:00,62.2,60.0,30.18,ENE,72,5.0,10.0,93,0.00,,,0.01,weatherlink.com 1.10,2013-01-08 01:02:00,
2013-01-07 20:17:00,62.2,60.0,30.18,ENE,70,4.0,12.0,93,0.00,,,0.01,weatherlink.com 1.10,2013-01-08 01:17:00,
2013-01-07 20:32:00,62.3,60.0,30.18,ENE,75,1.0,9.0,93,0.00,,,0.01,weatherlink.com 1.10,2013-01-08 01:32:00,
2013-01-07 20:47:00,62.2,60.0,30.18,East,91,3.0,7.0,93,0.00,,,0.01,weatherlink.com 1.10,2013-01-08 01:47:00,
2013-01-07 21:02:00,62.2,60.0,30.18,ENE,62,5.0,8.0,93,0.00,,,0.01,weatherlink.com 1.10,2013-01-08 02:02:00,
2013-01-07 21:17:00,62.2,60.0,30.17,NE,56,5.0,10.0,93,0.00,,,0.01,weatherlink.com 1.10,2013-01-08 02:17:00,
2013-01-07 21:32:00,62.0,60.0,30.17,ENE,63,3.0,6.0,94,0.00,,,0.01,weatherlink.com 1.10,2013-01-08 02:32:00,
2013-01-07 21:47:00,61.9,60.0,30.17,ENE,70,2.0,6.0,94,0.00,,,0.01,weatherlink.com 1.10,2013-01-08 02:47:00,
2013-01-07 22:02:00,62.0,60.0,30.18,ENE,73,3.0,9.0,94,0.00,,,0.01,weatherlink.com 1.10,2013-01-08 03:02:00,
2013-01-07 22:17:00,62.0,60.0,30.18,ENE,68,4.0,6.0,94,0.00,,,0.01,weatherlink.com 1.10,2013-01-08 03:17:00,
2013-01-07 22:32:00,61.9,61.0,30.17,NNE,15,4.0,8.0,95,0.00,,,0.01,weatherlink.com 1.10,2013-01-08 03:32:00,
2013-01-07 22:47:00,61.8,60.0,30.17,ENE,59,3.0,5.0,95,0.00,,,0.01,weatherlink.com 1.10,2013-01-08 03:47:00,
2013-01-07 23:02:00,61.7,60.0,30.16,NE,47,1.0,5.0,95,0.00,,,0.01,weatherlink.com 1.10,2013-01-08 04:02:00,
2013-01-07 23:17:00,61.7,60.0,30.16,East,100,2.0,7.0,95,0.00,,,0.01,weatherlink.com 1.10,2013-01-08 04:17:00,
2013-01-07 23:32:00,61.8,60.0,30.16,NE,44,4.0,8.0,95,0.00,,,0.01,weatherlink.com 1.10,2013-01-08 04:32:00,
2013-01-07 23:47:00,61.7,60.0,30.16,ENE,65,1.0,6.0,95,0.00,,,0.01,weatherlink.com 1.10,2013-01-08 04:47:00,